sensor_id;sensor_type;location;lat;lon;timestamp;temperature;humidity
14252;DHT22;7210;51.502;10.722;2023-04-20T00:01:09;5.50;99.90
14252;DHT22;7210;51.502;10.722;2023-04-20T00:03:36;5.50;99.90
14252;DHT22;7210;51.502;10.722;2023-04-20T00:06:03;5.50;99.90
14252;DHT22;7210;51.502;10.722;2023-04-20T00:08:32;5.50;99.90
14252;DHT22;7210;51.502;10.722;2023-04-20T00:10:59;5.40;99.90
14252;DHT22;7210;51.502;10.722;2023-04-20T00:13:26;5.40;99.90
14252;DHT22;7210;51.502;10.722;2023-04-20T00:15:53;5.40;99.90
14252;DHT22;7210;51.502;10.722;2023-04-20T00:18:20;5.40;99.90
14252;DHT22;7210;51.502;10.722;2023-04-20T00:20:47;5.30;99.90
14252;DHT22;7210;51.502;10.722;2023-04-20T00:23:15;5.30;99.90
14252;DHT22;7210;51.502;10.722;2023-04-20T00:25:43;5.30;99.90
14252;DHT22;7210;51.502;10.722;2023-04-20T00:28:10;5.30;99.90
14252;DHT22;7210;51.502;10.722;2023-04-20T00:30:39;5.20;99.90
14252;DHT22;7210;51.502;10.722;2023-04-20T00:33:06;5.20;99.90
14252;DHT22;7210;51.502;10.722;2023-04-20T00:35:34;5.20;99.90
14252;DHT22;7210;51.502;10.722;2023-04-20T00:38:01;5.20;99.90
14252;DHT22;7210;51.502;10.722;2023-04-20T00:40:28;5.20;99.90
14252;DHT22;7210;51.502;10.722;2023-04-20T00:42:57;5.20;99.90
14252;DHT22;7210;51.502;10.722;2023-04-20T00:45:35;5.20;99.90
14252;DHT22;7210;51.502;10.722;2023-04-20T00:48:02;5.20;99.90
14252;DHT22;7210;51.502;10.722;2023-04-20T00:50:29;5.20;99.90
14252;DHT22;7210;51.502;10.722;2023-04-20T00:52:57;5.20;99.90
14252;DHT22;7210;51.502;10.722;2023-04-20T00:55:25;5.20;99.90
14252;DHT22;7210;51.502;10.722;2023-04-20T00:57:53;5.20;99.90
14252;DHT22;7210;51.502;10.722;2023-04-20T01:00:22;5.20;99.90
14252;DHT22;7210;51.502;10.722;2023-04-20T01:02:49;5.10;99.90
14252;DHT22;7210;51.502;10.722;2023-04-20T01:05:17;5.10;99.90
14252;DHT22;7210;51.502;10.722;2023-04-20T01:07:44;5.10;99.90
14252;DHT22;7210;51.502;10.722;2023-04-20T01:10:12;5.10;99.90
14252;DHT22;7210;51.502;10.722;2023-04-20T01:12:39;5.00;99.90
14252;DHT22;7210;51.502;10.722;2023-04-20T01:15:07;5.00;99.90
14252;DHT22;7210;51.502;10.722;2023-04-20T01:17:37;4.90;99.90
14252;DHT22;7210;51.502;10.722;2023-04-20T01:20:05;4.90;99.90
14252;DHT22;7210;51.502;10.722;2023-04-20T01:22:43;4.90;99.90
14252;DHT22;7210;51.502;10.722;2023-04-20T01:25:11;5.00;99.90
14252;DHT22;7210;51.502;10.722;2023-04-20T01:27:39;5.00;99.90
14252;DHT22;7210;51.502;10.722;2023-04-20T01:30:07;5.00;99.90
14252;DHT22;7210;51.502;10.722;2023-04-20T01:32:37;5.00;99.90
14252;DHT22;7210;51.502;10.722;2023-04-20T01:35:05;5.00;99.90
14252;DHT22;7210;51.502;10.722;2023-04-20T01:37:34;5.00;99.90
14252;DHT22;7210;51.502;10.722;2023-04-20T01:40:04;4.90;99.90
14252;DHT22;7210;51.502;10.722;2023-04-20T01:42:32;4.90;99.90
14252;DHT22;7210;51.502;10.722;2023-04-20T01:45:00;4.90;99.90
14252;DHT22;7210;51.502;10.722;2023-04-20T01:47:27;4.90;99.90
14252;DHT22;7210;51.502;10.722;2023-04-20T01:49:54;5.00;99.90
14252;DHT22;7210;51.502;10.722;2023-04-20T01:52:24;5.00;99.90
14252;DHT22;7210;51.502;10.722;2023-04-20T01:54:51;5.00;99.90
14252;DHT22;7210;51.502;10.722;2023-04-20T01:57:20;5.00;99.90
14252;DHT22;7210;51.502;10.722;2023-04-20T01:59:48;5.00;99.90
14252;DHT22;7210;51.502;10.722;2023-04-20T02:02:15;5.00;99.90
14252;DHT22;7210;51.502;10.722;2023-04-20T02:05:21;5.00;99.90
14252;DHT22;7210;51.502;10.722;2023-04-20T02:07:48;5.00;99.90
14252;DHT22;7210;51.502;10.722;2023-04-20T02:10:16;5.00;99.90
14252;DHT22;7210;51.502;10.722;2023-04-20T02:12:45;4.90;99.90
14252;DHT22;7210;51.502;10.722;2023-04-20T02:18:05;4.90;99.90
14252;DHT22;7210;51.502;10.722;2023-04-20T02:20:32;4.90;99.90
14252;DHT22;7210;51.502;10.722;2023-04-20T02:22:59;5.00;99.90
14252;DHT22;7210;51.502;10.722;2023-04-20T02:25:27;5.00;99.90
14252;DHT22;7210;51.502;10.722;2023-04-20T02:27:55;5.10;99.90
14252;DHT22;7210;51.502;10.722;2023-04-20T02:30:23;5.10;99.90
14252;DHT22;7210;51.502;10.722;2023-04-20T02:32:50;5.10;99.90
14252;DHT22;7210;51.502;10.722;2023-04-20T02:35:18;5.00;99.90
14252;DHT22;7210;51.502;10.722;2023-04-20T02:37:45;5.00;99.90
14252;DHT22;7210;51.502;10.722;2023-04-20T02:40:13;5.00;99.90
14252;DHT22;7210;51.502;10.722;2023-04-20T02:42:41;4.90;99.90
14252;DHT22;7210;51.502;10.722;2023-04-20T02:45:11;4.90;99.90
14252;DHT22;7210;51.502;10.722;2023-04-20T02:47:41;4.90;99.90
14252;DHT22;7210;51.502;10.722;2023-04-20T02:50:11;4.80;99.90
14252;DHT22;7210;51.502;10.722;2023-04-20T02:52:57;4.90;99.90
14252;DHT22;7210;51.502;10.722;2023-04-20T02:55:24;4.90;99.90
14252;DHT22;7210;51.502;10.722;2023-04-20T02:57:55;4.90;99.90
14252;DHT22;7210;51.502;10.722;2023-04-20T03:00:36;4.90;99.90
14252;DHT22;7210;51.502;10.722;2023-04-20T03:03:06;4.90;99.90
14252;DHT22;7210;51.502;10.722;2023-04-20T03:05:33;4.90;99.90
14252;DHT22;7210;51.502;10.722;2023-04-20T03:08:01;5.00;99.90
14252;DHT22;7210;51.502;10.722;2023-04-20T03:10:30;5.00;99.90
14252;DHT22;7210;51.502;10.722;2023-04-20T03:13:12;5.00;99.90
14252;DHT22;7210;51.502;10.722;2023-04-20T03:16:01;5.00;99.90
14252;DHT22;7210;51.502;10.722;2023-04-20T03:18:54;5.00;99.90
14252;DHT22;7210;51.502;10.722;2023-04-20T03:21:22;5.00;99.90
14252;DHT22;7210;51.502;10.722;2023-04-20T03:23:49;5.00;99.90
14252;DHT22;7210;51.502;10.722;2023-04-20T03:26:17;5.00;99.90
14252;DHT22;7210;51.502;10.722;2023-04-20T03:29:00;5.10;99.90
14252;DHT22;7210;51.502;10.722;2023-04-20T03:31:29;5.10;99.90
14252;DHT22;7210;51.502;10.722;2023-04-20T03:33:57;5.10;99.90
14252;DHT22;7210;51.502;10.722;2023-04-20T03:36:24;5.10;99.90
14252;DHT22;7210;51.502;10.722;2023-04-20T03:38:55;5.10;99.90
14252;DHT22;7210;51.502;10.722;2023-04-20T03:41:22;5.00;99.90
14252;DHT22;7210;51.502;10.722;2023-04-20T03:43:49;5.00;99.90
14252;DHT22;7210;51.502;10.722;2023-04-20T03:46:16;5.10;99.90
14252;DHT22;7210;51.502;10.722;2023-04-20T03:48:45;5.10;99.90
14252;DHT22;7210;51.502;10.722;2023-04-20T03:51:12;5.10;99.90
14252;DHT22;7210;51.502;10.722;2023-04-20T03:53:39;5.10;99.90
14252;DHT22;7210;51.502;10.722;2023-04-20T03:56:09;5.10;99.90
14252;DHT22;7210;51.502;10.722;2023-04-20T03:58:36;5.10;99.90
14252;DHT22;7210;51.502;10.722;2023-04-20T04:01:12;5.00;99.90
14252;DHT22;7210;51.502;10.722;2023-04-20T04:03:46;5.00;99.90
14252;DHT22;7210;51.502;10.722;2023-04-20T04:06:14;5.00;99.90
14252;DHT22;7210;51.502;10.722;2023-04-20T04:08:41;5.00;99.90
14252;DHT22;7210;51.502;10.722;2023-04-20T04:11:08;5.10;99.90
14252;DHT22;7210;51.502;10.722;2023-04-20T04:13:35;5.00;99.90
14252;DHT22;7210;51.502;10.722;2023-04-20T04:16:06;5.00;99.90
14252;DHT22;7210;51.502;10.722;2023-04-20T04:18:34;5.10;99.90
14252;DHT22;7210;51.502;10.722;2023-04-20T04:21:08;5.00;99.90
14252;DHT22;7210;51.502;10.722;2023-04-20T04:23:37;5.00;99.90
14252;DHT22;7210;51.502;10.722;2023-04-20T04:26:15;5.10;99.90
14252;DHT22;7210;51.502;10.722;2023-04-20T04:28:46;5.10;99.90
14252;DHT22;7210;51.502;10.722;2023-04-20T04:31:17;5.10;99.90
14252;DHT22;7210;51.502;10.722;2023-04-20T04:33:46;5.20;99.90
14252;DHT22;7210;51.502;10.722;2023-04-20T04:36:27;5.10;99.90
14252;DHT22;7210;51.502;10.722;2023-04-20T04:38:57;5.20;99.90
14252;DHT22;7210;51.502;10.722;2023-04-20T04:41:25;5.20;99.90
14252;DHT22;7210;51.502;10.722;2023-04-20T04:43:56;5.20;99.90
14252;DHT22;7210;51.502;10.722;2023-04-20T04:46:28;5.20;99.90
14252;DHT22;7210;51.502;10.722;2023-04-20T04:48:56;5.20;99.90
14252;DHT22;7210;51.502;10.722;2023-04-20T04:51:27;5.20;99.90
14252;DHT22;7210;51.502;10.722;2023-04-20T04:53:54;5.20;99.90
14252;DHT22;7210;51.502;10.722;2023-04-20T04:56:21;5.20;99.90
14252;DHT22;7210;51.502;10.722;2023-04-20T04:58:48;5.20;99.90
14252;DHT22;7210;51.502;10.722;2023-04-20T05:01:16;5.20;99.90
14252;DHT22;7210;51.502;10.722;2023-04-20T05:03:43;5.10;99.90
14252;DHT22;7210;51.502;10.722;2023-04-20T05:06:10;5.10;99.90
14252;DHT22;7210;51.502;10.722;2023-04-20T05:08:39;5.20;99.90
14252;DHT22;7210;51.502;10.722;2023-04-20T05:11:06;5.30;99.90
14252;DHT22;7210;51.502;10.722;2023-04-20T05:13:33;5.20;99.90
14252;DHT22;7210;51.502;10.722;2023-04-20T05:16:00;5.20;99.90
14252;DHT22;7210;51.502;10.722;2023-04-20T05:18:27;5.20;99.90
14252;DHT22;7210;51.502;10.722;2023-04-20T05:20:54;5.30;99.90
14252;DHT22;7210;51.502;10.722;2023-04-20T05:23:21;5.30;99.90
14252;DHT22;7210;51.502;10.722;2023-04-20T05:25:50;5.40;99.90
14252;DHT22;7210;51.502;10.722;2023-04-20T05:28:17;5.40;99.90
14252;DHT22;7210;51.502;10.722;2023-04-20T05:30:44;5.40;99.90
14252;DHT22;7210;51.502;10.722;2023-04-20T05:33:12;5.40;99.90
14252;DHT22;7210;51.502;10.722;2023-04-20T05:35:39;5.40;99.90
14252;DHT22;7210;51.502;10.722;2023-04-20T05:38:06;5.40;99.90
14252;DHT22;7210;51.502;10.722;2023-04-20T05:40:33;5.30;99.90
14252;DHT22;7210;51.502;10.722;2023-04-20T05:43:02;5.40;99.90
14252;DHT22;7210;51.502;10.722;2023-04-20T05:45:29;5.40;99.90
14252;DHT22;7210;51.502;10.722;2023-04-20T05:47:57;5.50;99.90
14252;DHT22;7210;51.502;10.722;2023-04-20T05:50:25;5.60;99.90
14252;DHT22;7210;51.502;10.722;2023-04-20T05:52:53;5.60;99.90
14252;DHT22;7210;51.502;10.722;2023-04-20T05:55:20;5.70;99.90
14252;DHT22;7210;51.502;10.722;2023-04-20T05:57:47;5.70;99.90
14252;DHT22;7210;51.502;10.722;2023-04-20T06:00:17;5.70;99.90
14252;DHT22;7210;51.502;10.722;2023-04-20T06:02:44;5.70;99.90
14252;DHT22;7210;51.502;10.722;2023-04-20T06:05:12;5.80;99.90
14252;DHT22;7210;51.502;10.722;2023-04-20T06:07:39;5.80;99.90
14252;DHT22;7210;51.502;10.722;2023-04-20T06:10:07;5.80;99.90
14252;DHT22;7210;51.502;10.722;2023-04-20T06:12:35;5.90;99.90
14252;DHT22;7210;51.502;10.722;2023-04-20T06:15:05;5.80;99.90
14252;DHT22;7210;51.502;10.722;2023-04-20T06:17:37;5.80;99.90
14252;DHT22;7210;51.502;10.722;2023-04-20T06:20:06;5.70;99.90
14252;DHT22;7210;51.502;10.722;2023-04-20T06:22:35;5.80;99.90
14252;DHT22;7210;51.502;10.722;2023-04-20T06:25:08;5.80;99.90
14252;DHT22;7210;51.502;10.722;2023-04-20T06:27:36;5.80;99.90
14252;DHT22;7210;51.502;10.722;2023-04-20T06:30:05;5.80;99.90
14252;DHT22;7210;51.502;10.722;2023-04-20T06:32:36;5.80;99.90
14252;DHT22;7210;51.502;10.722;2023-04-20T06:35:06;5.80;99.90
14252;DHT22;7210;51.502;10.722;2023-04-20T06:37:34;5.80;99.90
14252;DHT22;7210;51.502;10.722;2023-04-20T06:40:02;5.90;99.90
14252;DHT22;7210;51.502;10.722;2023-04-20T06:42:32;5.90;99.90
14252;DHT22;7210;51.502;10.722;2023-04-20T06:44:59;6.00;99.90
14252;DHT22;7210;51.502;10.722;2023-04-20T06:47:26;6.10;99.90
14252;DHT22;7210;51.502;10.722;2023-04-20T06:49:58;6.20;99.90
14252;DHT22;7210;51.502;10.722;2023-04-20T06:52:25;6.10;99.90
14252;DHT22;7210;51.502;10.722;2023-04-20T06:54:53;6.10;99.90
14252;DHT22;7210;51.502;10.722;2023-04-20T06:57:20;6.10;99.90
14252;DHT22;7210;51.502;10.722;2023-04-20T06:59:47;6.10;99.90
14252;DHT22;7210;51.502;10.722;2023-04-20T07:02:14;6.10;99.90
14252;DHT22;7210;51.502;10.722;2023-04-20T07:04:41;6.20;99.90
14252;DHT22;7210;51.502;10.722;2023-04-20T07:07:10;6.20;99.90
14252;DHT22;7210;51.502;10.722;2023-04-20T07:09:37;6.10;99.90
14252;DHT22;7210;51.502;10.722;2023-04-20T07:12:04;6.10;99.90
14252;DHT22;7210;51.502;10.722;2023-04-20T07:14:31;6.20;99.90
14252;DHT22;7210;51.502;10.722;2023-04-20T07:16:59;6.20;99.90
14252;DHT22;7210;51.502;10.722;2023-04-20T07:19:26;6.30;99.90
14252;DHT22;7210;51.502;10.722;2023-04-20T07:21:53;6.40;99.90
14252;DHT22;7210;51.502;10.722;2023-04-20T07:24:21;6.50;99.90
14252;DHT22;7210;51.502;10.722;2023-04-20T07:26:48;6.60;99.90
14252;DHT22;7210;51.502;10.722;2023-04-20T07:29:16;6.60;99.90
14252;DHT22;7210;51.502;10.722;2023-04-20T07:31:43;6.60;99.90
14252;DHT22;7210;51.502;10.722;2023-04-20T07:34:10;6.70;99.90
14252;DHT22;7210;51.502;10.722;2023-04-20T07:36:41;6.70;99.90
14252;DHT22;7210;51.502;10.722;2023-04-20T07:39:08;6.80;99.90
14252;DHT22;7210;51.502;10.722;2023-04-20T07:41:38;6.90;99.90
14252;DHT22;7210;51.502;10.722;2023-04-20T07:44:05;6.90;99.90
14252;DHT22;7210;51.502;10.722;2023-04-20T07:46:34;6.90;99.90
14252;DHT22;7210;51.502;10.722;2023-04-20T07:49:02;6.90;99.90
14252;DHT22;7210;51.502;10.722;2023-04-20T07:51:32;6.90;99.90
14252;DHT22;7210;51.502;10.722;2023-04-20T07:54:00;6.90;99.90
14252;DHT22;7210;51.502;10.722;2023-04-20T07:56:29;7.00;99.90
14252;DHT22;7210;51.502;10.722;2023-04-20T07:58:58;7.00;99.90
14252;DHT22;7210;51.502;10.722;2023-04-20T08:01:25;6.90;99.90
14252;DHT22;7210;51.502;10.722;2023-04-20T08:03:52;6.90;99.90
14252;DHT22;7210;51.502;10.722;2023-04-20T08:06:20;6.90;99.90
14252;DHT22;7210;51.502;10.722;2023-04-20T08:08:47;6.80;99.90
14252;DHT22;7210;51.502;10.722;2023-04-20T08:11:14;6.80;99.90
14252;DHT22;7210;51.502;10.722;2023-04-20T08:13:41;6.90;99.90
14252;DHT22;7210;51.502;10.722;2023-04-20T08:16:10;6.90;99.90
14252;DHT22;7210;51.502;10.722;2023-04-20T08:18:37;6.90;99.90
14252;DHT22;7210;51.502;10.722;2023-04-20T08:21:04;6.80;99.90
14252;DHT22;7210;51.502;10.722;2023-04-20T08:23:31;6.80;99.90
14252;DHT22;7210;51.502;10.722;2023-04-20T08:25:59;6.70;99.90
14252;DHT22;7210;51.502;10.722;2023-04-20T08:28:26;6.70;99.90
14252;DHT22;7210;51.502;10.722;2023-04-20T08:30:53;6.70;99.90
14252;DHT22;7210;51.502;10.722;2023-04-20T08:33:22;6.70;99.90
14252;DHT22;7210;51.502;10.722;2023-04-20T08:35:49;6.70;99.90
14252;DHT22;7210;51.502;10.722;2023-04-20T08:38:17;6.70;99.90
14252;DHT22;7210;51.502;10.722;2023-04-20T08:40:46;6.80;99.90
14252;DHT22;7210;51.502;10.722;2023-04-20T08:43:13;7.00;99.90
14252;DHT22;7210;51.502;10.722;2023-04-20T08:45:42;7.20;99.90
14252;DHT22;7210;51.502;10.722;2023-04-20T08:48:16;7.50;99.90
14252;DHT22;7210;51.502;10.722;2023-04-20T08:50:47;7.50;99.90
14252;DHT22;7210;51.502;10.722;2023-04-20T08:53:16;7.60;99.90
14252;DHT22;7210;51.502;10.722;2023-04-20T08:55:43;7.50;99.90
14252;DHT22;7210;51.502;10.722;2023-04-20T08:58:10;7.40;99.90
14252;DHT22;7210;51.502;10.722;2023-04-20T09:00:45;7.40;99.90
14252;DHT22;7210;51.502;10.722;2023-04-20T09:03:12;7.30;99.90
14252;DHT22;7210;51.502;10.722;2023-04-20T09:05:40;7.40;99.90
14252;DHT22;7210;51.502;10.722;2023-04-20T09:08:08;7.50;99.90
14252;DHT22;7210;51.502;10.722;2023-04-20T09:10:40;7.60;99.90
14252;DHT22;7210;51.502;10.722;2023-04-20T09:13:08;7.50;99.90
14252;DHT22;7210;51.502;10.722;2023-04-20T09:15:46;7.60;99.90
14252;DHT22;7210;51.502;10.722;2023-04-20T09:18:14;7.50;99.90
14252;DHT22;7210;51.502;10.722;2023-04-20T09:20:42;7.50;99.90
14252;DHT22;7210;51.502;10.722;2023-04-20T09:23:14;7.40;99.90
14252;DHT22;7210;51.502;10.722;2023-04-20T09:25:43;7.40;99.90
14252;DHT22;7210;51.502;10.722;2023-04-20T09:28:17;7.50;99.90
14252;DHT22;7210;51.502;10.722;2023-04-20T09:30:46;7.40;99.90
14252;DHT22;7210;51.502;10.722;2023-04-20T09:33:16;7.40;99.90
14252;DHT22;7210;51.502;10.722;2023-04-20T09:35:44;7.50;99.90
14252;DHT22;7210;51.502;10.722;2023-04-20T09:38:16;7.80;99.90
14252;DHT22;7210;51.502;10.722;2023-04-20T09:40:43;7.90;99.90
14252;DHT22;7210;51.502;10.722;2023-04-20T09:43:16;8.00;99.90
14252;DHT22;7210;51.502;10.722;2023-04-20T09:45:46;8.10;99.90
14252;DHT22;7210;51.502;10.722;2023-04-20T09:48:13;8.30;99.90
14252;DHT22;7210;51.502;10.722;2023-04-20T09:50:43;8.30;99.90
14252;DHT22;7210;51.502;10.722;2023-04-20T09:53:16;8.20;99.90
14252;DHT22;7210;51.502;10.722;2023-04-20T09:55:45;8.20;99.90
14252;DHT22;7210;51.502;10.722;2023-04-20T09:58:13;8.60;99.90
14252;DHT22;7210;51.502;10.722;2023-04-20T10:00:43;8.90;99.90
14252;DHT22;7210;51.502;10.722;2023-04-20T10:03:10;9.00;99.90
14252;DHT22;7210;51.502;10.722;2023-04-20T10:05:38;9.10;99.90
14252;DHT22;7210;51.502;10.722;2023-04-20T10:08:05;9.10;99.90
14252;DHT22;7210;51.502;10.722;2023-04-20T10:10:44;9.00;99.90
14252;DHT22;7210;51.502;10.722;2023-04-20T10:13:12;9.10;99.90
14252;DHT22;7210;51.502;10.722;2023-04-20T10:15:41;8.90;99.90
14252;DHT22;7210;51.502;10.722;2023-04-20T10:18:19;9.00;99.90
14252;DHT22;7210;51.502;10.722;2023-04-20T10:20:48;9.10;99.90
14252;DHT22;7210;51.502;10.722;2023-04-20T10:23:16;9.30;99.90
14252;DHT22;7210;51.502;10.722;2023-04-20T10:25:55;9.40;99.90
14252;DHT22;7210;51.502;10.722;2023-04-20T10:28:23;9.30;99.90
14252;DHT22;7210;51.502;10.722;2023-04-20T10:30:52;9.20;99.90
14252;DHT22;7210;51.502;10.722;2023-04-20T10:33:19;9.40;99.90
14252;DHT22;7210;51.502;10.722;2023-04-20T10:35:48;9.50;99.90
14252;DHT22;7210;51.502;10.722;2023-04-20T10:38:27;9.90;99.90
14252;DHT22;7210;51.502;10.722;2023-04-20T10:41:04;10.40;99.90
14252;DHT22;7210;51.502;10.722;2023-04-20T10:43:31;10.60;99.90
14252;DHT22;7210;51.502;10.722;2023-04-20T10:45:59;10.50;99.90
14252;DHT22;7210;51.502;10.722;2023-04-20T10:48:27;10.40;99.90
14252;DHT22;7210;51.502;10.722;2023-04-20T10:50:54;10.20;99.90
14252;DHT22;7210;51.502;10.722;2023-04-20T10:53:22;10.10;99.90
14252;DHT22;7210;51.502;10.722;2023-04-20T10:55:59;10.10;99.90
14252;DHT22;7210;51.502;10.722;2023-04-20T10:58:26;10.10;99.90
14252;DHT22;7210;51.502;10.722;2023-04-20T11:00:57;10.20;99.90
14252;DHT22;7210;51.502;10.722;2023-04-20T11:03:27;10.10;99.90
14252;DHT22;7210;51.502;10.722;2023-04-20T11:05:55;10.00;99.90
14252;DHT22;7210;51.502;10.722;2023-04-20T11:08:35;10.00;99.90
14252;DHT22;7210;51.502;10.722;2023-04-20T11:11:16;10.00;99.90
14252;DHT22;7210;51.502;10.722;2023-04-20T11:13:43;9.80;99.90
14252;DHT22;7210;51.502;10.722;2023-04-20T11:16:11;9.70;99.90
14252;DHT22;7210;51.502;10.722;2023-04-20T11:18:48;9.90;99.90
14252;DHT22;7210;51.502;10.722;2023-04-20T11:21:18;10.20;99.90
14252;DHT22;7210;51.502;10.722;2023-04-20T11:23:47;10.20;99.90
14252;DHT22;7210;51.502;10.722;2023-04-20T11:26:17;10.10;99.90
14252;DHT22;7210;51.502;10.722;2023-04-20T11:28:51;10.00;99.90
14252;DHT22;7210;51.502;10.722;2023-04-20T11:31:19;10.20;99.90
14252;DHT22;7210;51.502;10.722;2023-04-20T11:33:47;10.50;99.90
14252;DHT22;7210;51.502;10.722;2023-04-20T11:36:18;10.70;1.00
14252;DHT22;7210;51.502;10.722;2023-04-20T11:38:46;10.80;1.00
14252;DHT22;7210;51.502;10.722;2023-04-20T11:41:15;10.70;1.00
14252;DHT22;7210;51.502;10.722;2023-04-20T11:43:44;10.80;1.00
14252;DHT22;7210;51.502;10.722;2023-04-20T11:46:13;10.90;1.00
14252;DHT22;7210;51.502;10.722;2023-04-20T11:48:41;11.10;1.00
14252;DHT22;7210;51.502;10.722;2023-04-20T11:51:09;11.10;1.00
14252;DHT22;7210;51.502;10.722;2023-04-20T11:53:36;11.00;1.00
14252;DHT22;7210;51.502;10.722;2023-04-20T11:56:03;10.80;1.00
14252;DHT22;7210;51.502;10.722;2023-04-20T11:58:33;10.80;1.00
14252;DHT22;7210;51.502;10.722;2023-04-20T12:01:01;10.50;1.00
14252;DHT22;7210;51.502;10.722;2023-04-20T12:03:29;10.50;1.00
14252;DHT22;7210;51.502;10.722;2023-04-20T12:05:58;10.50;1.00
14252;DHT22;7210;51.502;10.722;2023-04-20T12:08:25;10.30;1.00
14252;DHT22;7210;51.502;10.722;2023-04-20T12:10:52;10.20;1.00
14252;DHT22;7210;51.502;10.722;2023-04-20T12:13:19;10.10;1.00
14252;DHT22;7210;51.502;10.722;2023-04-20T12:15:48;10.10;1.00
14252;DHT22;7210;51.502;10.722;2023-04-20T12:18:15;10.20;1.00
14252;DHT22;7210;51.502;10.722;2023-04-20T12:20:42;10.30;1.00
14252;DHT22;7210;51.502;10.722;2023-04-20T12:23:10;10.40;1.00
14252;DHT22;7210;51.502;10.722;2023-04-20T12:25:37;10.60;1.00
14252;DHT22;7210;51.502;10.722;2023-04-20T12:28:04;10.50;1.00
14252;DHT22;7210;51.502;10.722;2023-04-20T12:30:32;10.50;1.00
14252;DHT22;7210;51.502;10.722;2023-04-20T12:33:02;10.40;1.00
14252;DHT22;7210;51.502;10.722;2023-04-20T12:35:29;10.40;1.00
14252;DHT22;7210;51.502;10.722;2023-04-20T12:37:56;10.20;1.00
14252;DHT22;7210;51.502;10.722;2023-04-20T12:40:24;10.00;1.00
14252;DHT22;7210;51.502;10.722;2023-04-20T12:42:51;9.90;99.90
14252;DHT22;7210;51.502;10.722;2023-04-20T12:45:18;9.80;99.90
14252;DHT22;7210;51.502;10.722;2023-04-20T12:47:46;9.80;99.90
14252;DHT22;7210;51.502;10.722;2023-04-20T12:50:14;9.80;99.90
14252;DHT22;7210;51.502;10.722;2023-04-20T12:52:41;9.70;99.90
14252;DHT22;7210;51.502;10.722;2023-04-20T12:55:09;9.60;1.00
14252;DHT22;7210;51.502;10.722;2023-04-20T12:57:37;9.60;99.90
14252;DHT22;7210;51.502;10.722;2023-04-20T13:00:06;9.50;99.90
14252;DHT22;7210;51.502;10.722;2023-04-20T13:02:34;9.40;99.90
14252;DHT22;7210;51.502;10.722;2023-04-20T13:05:01;9.40;99.90
14252;DHT22;7210;51.502;10.722;2023-04-20T13:07:30;9.30;99.90
14252;DHT22;7210;51.502;10.722;2023-04-20T13:09:59;9.30;99.90
14252;DHT22;7210;51.502;10.722;2023-04-20T13:12:26;9.40;99.90
14252;DHT22;7210;51.502;10.722;2023-04-20T13:14:53;9.50;99.90
14252;DHT22;7210;51.502;10.722;2023-04-20T13:17:21;9.80;99.90
14252;DHT22;7210;51.502;10.722;2023-04-20T13:19:48;10.00;99.90
14252;DHT22;7210;51.502;10.722;2023-04-20T13:22:16;9.90;99.90
14252;DHT22;7210;51.502;10.722;2023-04-20T13:24:45;9.90;99.90
14252;DHT22;7210;51.502;10.722;2023-04-20T13:27:12;9.80;99.90
14252;DHT22;7210;51.502;10.722;2023-04-20T13:29:39;9.70;99.90
14252;DHT22;7210;51.502;10.722;2023-04-20T13:32:07;9.70;99.90
14252;DHT22;7210;51.502;10.722;2023-04-20T13:34:34;9.70;99.90
14252;DHT22;7210;51.502;10.722;2023-04-20T13:37:01;9.70;99.90
14252;DHT22;7210;51.502;10.722;2023-04-20T13:39:29;9.70;99.90
14252;DHT22;7210;51.502;10.722;2023-04-20T13:41:57;9.70;99.90
14252;DHT22;7210;51.502;10.722;2023-04-20T13:44:24;9.50;99.90
14252;DHT22;7210;51.502;10.722;2023-04-20T13:46:51;9.50;99.90
14252;DHT22;7210;51.502;10.722;2023-04-20T13:49:19;9.50;99.90
14252;DHT22;7210;51.502;10.722;2023-04-20T13:51:47;9.40;99.90
14252;DHT22;7210;51.502;10.722;2023-04-20T13:54:14;9.30;99.90
14252;DHT22;7210;51.502;10.722;2023-04-20T13:56:42;9.30;99.90
14252;DHT22;7210;51.502;10.722;2023-04-20T13:59:11;9.30;99.90
14252;DHT22;7210;51.502;10.722;2023-04-20T14:01:38;9.30;99.90
14252;DHT22;7210;51.502;10.722;2023-04-20T14:04:05;9.20;99.90
14252;DHT22;7210;51.502;10.722;2023-04-20T14:06:34;9.10;99.90
14252;DHT22;7210;51.502;10.722;2023-04-20T14:09:01;9.20;99.90
14252;DHT22;7210;51.502;10.722;2023-04-20T14:11:28;9.10;99.90
14252;DHT22;7210;51.502;10.722;2023-04-20T14:13:57;9.00;99.90
14252;DHT22;7210;51.502;10.722;2023-04-20T14:16:27;9.10;99.90
14252;DHT22;7210;51.502;10.722;2023-04-20T14:18:54;9.10;99.90
14252;DHT22;7210;51.502;10.722;2023-04-20T14:21:21;9.00;99.90
14252;DHT22;7210;51.502;10.722;2023-04-20T14:23:48;9.00;99.90
14252;DHT22;7210;51.502;10.722;2023-04-20T14:26:18;8.90;99.90
14252;DHT22;7210;51.502;10.722;2023-04-20T14:28:45;8.90;99.90
14252;DHT22;7210;51.502;10.722;2023-04-20T14:31:12;9.00;99.90
14252;DHT22;7210;51.502;10.722;2023-04-20T14:33:40;9.00;99.90
14252;DHT22;7210;51.502;10.722;2023-04-20T14:36:09;9.00;99.90
14252;DHT22;7210;51.502;10.722;2023-04-20T14:38:36;9.10;99.90
14252;DHT22;7210;51.502;10.722;2023-04-20T14:41:04;9.10;99.90
14252;DHT22;7210;51.502;10.722;2023-04-20T14:43:32;9.10;99.90
14252;DHT22;7210;51.502;10.722;2023-04-20T14:46:00;9.20;99.90
14252;DHT22;7210;51.502;10.722;2023-04-20T14:48:27;9.10;99.90
14252;DHT22;7210;51.502;10.722;2023-04-20T14:50:55;9.10;99.90
14252;DHT22;7210;51.502;10.722;2023-04-20T14:53:22;9.00;99.90
14252;DHT22;7210;51.502;10.722;2023-04-20T14:55:50;8.90;99.90
14252;DHT22;7210;51.502;10.722;2023-04-20T14:58:17;8.80;99.90
14252;DHT22;7210;51.502;10.722;2023-04-20T15:00:45;8.70;99.90
14252;DHT22;7210;51.502;10.722;2023-04-20T15:03:15;8.60;99.90
14252;DHT22;7210;51.502;10.722;2023-04-20T15:05:42;8.50;99.90
14252;DHT22;7210;51.502;10.722;2023-04-20T15:08:11;8.50;99.90
14252;DHT22;7210;51.502;10.722;2023-04-20T15:10:38;8.60;99.90
14252;DHT22;7210;51.502;10.722;2023-04-20T15:13:05;8.60;99.90
14252;DHT22;7210;51.502;10.722;2023-04-20T15:15:33;8.50;99.90
14252;DHT22;7210;51.502;10.722;2023-04-20T15:18:00;8.60;99.90
14252;DHT22;7210;51.502;10.722;2023-04-20T15:20:27;8.70;99.90
14252;DHT22;7210;51.502;10.722;2023-04-20T15:22:55;8.70;99.90
14252;DHT22;7210;51.502;10.722;2023-04-20T15:25:23;8.80;99.90
14252;DHT22;7210;51.502;10.722;2023-04-20T15:27:51;8.80;99.90
14252;DHT22;7210;51.502;10.722;2023-04-20T15:30:18;8.70;99.90
14252;DHT22;7210;51.502;10.722;2023-04-20T15:32:46;8.60;99.90
14252;DHT22;7210;51.502;10.722;2023-04-20T15:35:13;8.60;99.90
14252;DHT22;7210;51.502;10.722;2023-04-20T15:37:40;8.50;99.90
14252;DHT22;7210;51.502;10.722;2023-04-20T15:40:08;8.50;99.90
14252;DHT22;7210;51.502;10.722;2023-04-20T15:42:37;8.50;99.90
14252;DHT22;7210;51.502;10.722;2023-04-20T15:45:05;8.40;99.90
14252;DHT22;7210;51.502;10.722;2023-04-20T15:47:33;8.40;99.90
14252;DHT22;7210;51.502;10.722;2023-04-20T15:50:00;8.30;99.90
14252;DHT22;7210;51.502;10.722;2023-04-20T15:52:29;8.30;99.90
14252;DHT22;7210;51.502;10.722;2023-04-20T15:54:57;8.30;99.90
14252;DHT22;7210;51.502;10.722;2023-04-20T15:57:24;8.30;99.90